Glendale, Arizona
Current Conditions -  °F | °C
As of 11:55 AM on Tuesday 27 Jan 2015 (Local Time) from KGEU Reporting Station
Broken Clouds Broken Clouds  
Wind Chill: 66°   Ceiling: 15000
Heat Index: 66°   Visibility: 20mi
Dew Point: 52°   Wind: 7mph
Humidity: 60%   Direction: 100°E
Pressure: 30.25"   Gusts: NA
Location:  33.54°N, 112.18°W
Report Text: KGEU 271855Z 10006KT 20SM SCT050 SCT100 BKN150 19/11 A3025
Loading
Personal Weather Stations






























Interactive Weather Map New forecast layout! Learn more

10-Day Weather Forecast

Advertisements
Track Severe Weather on mobile